createdAt,value
2022-08-17T00:02:26.557Z,21.65
2022-08-17T00:04:55.035Z,33.90
2022-08-17T00:07:22.543Z,22.05
2022-08-17T00:09:49.442Z,24.83
2022-08-17T00:12:41.557Z,31.38
2022-08-17T00:15:05.831Z,29.63
2022-08-17T00:17:35.304Z,27.42
2022-08-17T00:20:02.197Z,37.65
2022-08-17T00:22:34.266Z,29.70
2022-08-17T00:25:08.874Z,31.08
2022-08-17T00:27:35.930Z,28.85
2022-08-17T00:30:05.248Z,37.95
2022-08-17T00:33:16.005Z,27.60
2022-08-17T00:35:27.807Z,27.55
2022-08-17T00:37:55.198Z,36.13
2022-08-17T00:40:22.572Z,28.02
2022-08-17T00:42:53.305Z,35.28
2022-08-17T00:45:20.562Z,29.88
2022-08-17T00:47:49.353Z,31.35
2022-08-17T00:50:18.701Z,27.52
2022-08-17T00:52:55.548Z,25.92
2022-08-17T00:55:24.085Z,31.85
2022-08-17T00:57:56.347Z,33.17
2022-08-17T01:00:39.389Z,30.83
2022-08-17T01:03:13.302Z,35.07
2022-08-17T01:05:43.770Z,28.48
2022-08-17T01:08:15.281Z,39.15
2022-08-17T01:10:57.328Z,30.17
2022-08-17T01:13:43.212Z,27.77
2022-08-17T01:16:31.484Z,26.08
2022-08-17T01:19:02.089Z,31.42
2022-08-17T01:21:48.632Z,28.27
2022-08-17T01:24:16.508Z,27.23
2022-08-17T01:26:44.694Z,32.33
2022-08-17T01:29:12.662Z,28.13
2022-08-17T01:31:45.531Z,26.48
2022-08-17T01:34:14.835Z,23.73
2022-08-17T01:36:44.546Z,25.17
2022-08-17T01:39:30.783Z,25.77
2022-08-17T01:42:50.242Z,25.63
2022-08-17T01:45:25.194Z,24.13
2022-08-17T01:47:53.639Z,28.25
2022-08-17T01:50:32.547Z,24.63
2022-08-17T01:53:04.658Z,27.27
2022-08-17T01:55:41.439Z,32.08
2022-08-17T01:58:09.714Z,23.27
2022-08-17T02:00:46.764Z,24.20
2022-08-17T02:03:25.657Z,25.45
2022-08-17T02:05:53.320Z,25.63
2022-08-17T02:08:39.060Z,28.23
2022-08-17T02:11:14.620Z,30.13
2022-08-17T02:13:42.247Z,47.30
2022-08-17T02:16:09.157Z,30.92
2022-08-17T02:18:35.966Z,31.33
2022-08-17T02:21:04.054Z,30.25
2022-08-17T02:23:34.374Z,28.20
2022-08-17T02:26:02.063Z,23.40
2022-08-17T02:28:29.391Z,25.90
2022-08-17T02:31:00.886Z,26.08
2022-08-17T02:33:42.545Z,26.35
2022-08-17T02:36:13.184Z,30.05
2022-08-17T02:38:41.046Z,27.23
2022-08-17T02:41:08.029Z,32.40
2022-08-17T02:43:35.034Z,33.03
2022-08-17T02:46:01.852Z,33.45
2022-08-17T02:48:31.260Z,38.17
2022-08-17T02:51:00.195Z,41.60
2022-08-17T02:53:27.521Z,40.92
2022-08-17T02:58:35.458Z,33.53
2022-08-17T03:01:06.024Z,42.38
2022-08-17T03:03:33.865Z,38.97
2022-08-17T03:06:01.089Z,39.33
2022-08-17T03:08:28.410Z,39.05
2022-08-17T03:10:55.552Z,35.85
2022-08-17T03:13:22.970Z,37.88
2022-08-17T03:15:50.529Z,38.65
2022-08-17T03:18:25.611Z,33.95
2022-08-17T03:20:59.922Z,40.10
2022-08-17T03:23:29.746Z,45.58
2022-08-17T03:25:58.673Z,46.50
2022-08-17T03:28:26.062Z,48.50
2022-08-17T03:30:52.978Z,43.17
2022-08-17T03:33:20.636Z,46.33
2022-08-17T03:35:47.737Z,37.85
2022-08-17T03:38:16.967Z,37.08
2022-08-17T03:40:58.908Z,41.55
2022-08-17T03:43:30.082Z,36.97
2022-08-17T03:46:28.294Z,37.67
2022-08-17T03:49:22.996Z,37.83
2022-08-17T03:52:08.385Z,32.25
2022-08-17T03:54:53.843Z,34.72
2022-08-17T03:57:20.705Z,34.97
2022-08-17T03:59:49.447Z,31.77
2022-08-17T04:02:21.209Z,28.02
2022-08-17T04:04:50.819Z,33.38
2022-08-17T04:07:22.994Z,31.10
2022-08-17T04:09:50.149Z,27.83
2022-08-17T04:12:19.137Z,33.85
2022-08-17T04:14:53.722Z,34.55
2022-08-17T04:17:24.082Z,34.70
2022-08-17T04:19:51.089Z,36.60
2022-08-17T04:22:30.954Z,35.60
2022-08-17T04:25:08.141Z,50.42
2022-08-17T04:27:35.653Z,37.58
2022-08-17T04:30:02.568Z,38.85
2022-08-17T04:33:00.592Z,41.63
2022-08-17T04:35:25.541Z,41.63
2022-08-17T04:37:52.805Z,48.08
2022-08-17T04:40:40.114Z,33.28
2022-08-17T04:43:10.404Z,40.33
2022-08-17T04:45:55.544Z,37.13
2022-08-17T04:48:34.738Z,34.92
2022-08-17T04:51:07.516Z,35.65
2022-08-17T04:53:34.356Z,35.08
2022-08-17T04:56:01.217Z,43.05
2022-08-17T04:58:28.098Z,34.17
2022-08-17T05:00:54.942Z,33.92
2022-08-17T05:03:22.116Z,35.75
2022-08-17T05:05:52.086Z,38.78
2022-08-17T05:08:20.679Z,33.80
2022-08-17T05:10:48.587Z,37.08
2022-08-17T05:13:23.919Z,35.30
2022-08-17T05:15:58.198Z,36.10
2022-08-17T05:18:25.305Z,34.42
2022-08-17T05:20:52.805Z,35.40
2022-08-17T05:23:22.595Z,45.55
2022-08-17T05:25:53.926Z,48.25
2022-08-17T05:28:24.297Z,34.22
2022-08-17T05:30:56.903Z,33.13
2022-08-17T05:33:28.123Z,33.63
2022-08-17T05:35:57.457Z,28.77
2022-08-17T05:38:27.545Z,33.78
2022-08-17T05:40:55.241Z,31.58
2022-08-17T05:43:28.950Z,28.88
2022-08-17T05:46:26.257Z,28.40
2022-08-17T05:48:57.589Z,26.98
2022-08-17T05:51:42.901Z,27.17
2022-08-17T05:54:39.876Z,27.38
2022-08-17T05:57:20.959Z,24.70
2022-08-17T06:00:16.939Z,28.40
2022-08-17T06:03:05.958Z,31.70
2022-08-17T06:06:05.949Z,27.60
2022-08-17T06:09:06.696Z,32.75
2022-08-17T06:11:48.051Z,29.25
2022-08-17T06:14:51.039Z,36.17
2022-08-17T06:17:22.525Z,33.55
2022-08-17T06:20:07.958Z,29.38
2022-08-17T06:22:42.101Z,33.65
2022-08-17T06:25:18.618Z,40.95
2022-08-17T06:27:58.439Z,54.95
2022-08-17T06:30:29.023Z,32.30
2022-08-17T06:33:27.705Z,26.75
2022-08-17T06:36:02.587Z,27.02
2022-08-17T06:38:46.900Z,21.25
2022-08-17T06:41:29.007Z,24.23
2022-08-17T06:44:10.127Z,33.60
2022-08-17T06:46:48.411Z,30.60
2022-08-17T06:49:28.555Z,15.95
2022-08-17T06:52:12.294Z,21.00
2022-08-17T06:55:07.059Z,24.80
2022-08-17T06:57:38.221Z,24.83
2022-08-17T07:00:16.946Z,24.15
2022-08-17T07:03:08.495Z,21.45
2022-08-17T07:05:59.965Z,24.52
2022-08-17T07:08:35.038Z,16.92
2022-08-17T07:11:09.516Z,29.90
2022-08-17T07:14:05.331Z,22.00
2022-08-17T07:16:46.194Z,26.77
2022-08-17T07:19:16.722Z,28.58
2022-08-17T07:21:56.267Z,20.10
2022-08-17T07:24:30.293Z,32.22
2022-08-17T07:27:16.541Z,29.00
2022-08-17T07:29:46.911Z,24.67
2022-08-17T07:32:18.532Z,34.20
2022-08-17T07:35:08.465Z,23.42
2022-08-17T07:37:53.934Z,21.95
2022-08-17T07:40:35.244Z,18.98
2022-08-17T07:43:11.463Z,24.27
2022-08-17T07:46:31.137Z,26.05
2022-08-17T07:49:23.869Z,21.98
2022-08-17T07:51:50.542Z,28.15
2022-08-17T07:54:22.455Z,26.73
2022-08-17T07:56:53.658Z,26.90
2022-08-17T07:59:23.670Z,31.63
2022-08-17T08:01:58.124Z,27.25
2022-08-17T08:04:59.007Z,33.17
2022-08-17T08:07:21.751Z,26.23
2022-08-17T08:10:07.489Z,33.38
2022-08-17T08:12:46.975Z,36.97
2022-08-17T08:15:33.355Z,28.52
2022-08-17T08:18:03.733Z,49.72
2022-08-17T08:20:53.072Z,34.72
2022-08-17T08:23:37.133Z,39.08
2022-08-17T08:26:20.320Z,40.92
2022-08-17T08:29:23.335Z,33.10
2022-08-17T08:32:13.521Z,32.00
2022-08-17T08:35:02.006Z,38.25
2022-08-17T08:37:35.532Z,33.08
2022-08-17T08:40:09.884Z,32.95
2022-08-17T08:42:37.136Z,32.05
2022-08-17T08:45:38.071Z,33.33
2022-08-17T08:48:52.945Z,33.38
2022-08-17T08:51:30.182Z,31.15
2022-08-17T08:54:14.454Z,41.05
2022-08-17T08:57:21.889Z,33.45
2022-08-17T09:00:13.269Z,35.22
2022-08-17T09:02:46.087Z,39.70
2022-08-17T09:05:31.778Z,45.83
2022-08-17T09:08:20.955Z,38.38
2022-08-17T09:11:03.380Z,48.35
2022-08-17T09:13:58.789Z,44.90
2022-08-17T09:16:37.514Z,43.83
2022-08-17T09:19:15.763Z,40.13
2022-08-17T09:21:48.233Z,48.05
2022-08-17T09:24:43.666Z,46.40
2022-08-17T09:27:26.603Z,39.58
2022-08-17T09:29:59.912Z,47.75
2022-08-17T09:32:42.183Z,38.75
2022-08-17T09:35:19.871Z,40.08
2022-08-17T09:38:19.918Z,42.00
2022-08-17T09:41:09.883Z,44.05
2022-08-17T09:43:49.082Z,41.72
2022-08-17T09:46:21.225Z,39.88
2022-08-17T09:49:01.757Z,41.38
2022-08-17T09:51:40.002Z,35.13
2022-08-17T09:54:38.161Z,41.75
2022-08-17T09:57:30.284Z,38.25
2022-08-17T10:00:25.055Z,39.47
2022-08-17T10:06:01.904Z,41.97
2022-08-17T10:08:52.414Z,35.25
2022-08-17T10:11:33.432Z,33.55
2022-08-17T10:14:37.381Z,33.85
2022-08-17T10:17:20.647Z,31.80
2022-08-17T10:19:57.792Z,33.60
2022-08-17T10:22:59.298Z,30.48
2022-08-17T10:26:00.287Z,28.38
2022-08-17T10:28:32.356Z,37.15
2022-08-17T10:31:34.428Z,29.55
2022-08-17T10:34:28.617Z,29.00
2022-08-17T10:37:05.725Z,28.17
2022-08-17T10:39:57.334Z,28.35
2022-08-17T10:42:30.809Z,30.45
2022-08-17T10:45:21.414Z,29.75
2022-08-17T10:48:16.579Z,30.83
2022-08-17T10:51:00.447Z,31.00
2022-08-17T10:53:33.506Z,26.52
2022-08-17T10:56:13.483Z,29.73
2022-08-17T10:58:58.441Z,29.58
2022-08-17T11:01:34.116Z,31.25
2022-08-17T11:04:27.250Z,25.92
2022-08-17T11:07:14.501Z,28.13
2022-08-17T11:10:03.209Z,28.52
2022-08-17T11:12:45.494Z,27.88
2022-08-17T11:15:24.674Z,24.63
2022-08-17T11:18:05.086Z,27.55
2022-08-17T11:21:07.119Z,22.55
2022-08-17T11:24:06.420Z,24.65
2022-08-17T11:26:36.239Z,26.95
2022-08-17T11:29:16.455Z,25.52
2022-08-17T11:31:58.137Z,26.42
2022-08-17T11:34:28.748Z,29.33
2022-08-17T11:37:17.477Z,18.85
2022-08-17T11:40:04.503Z,20.77
2022-08-17T11:43:03.515Z,19.50
2022-08-17T11:45:37.182Z,21.15
2022-08-17T11:49:05.403Z,19.38
2022-08-17T11:51:56.487Z,21.25
2022-08-17T11:54:45.126Z,21.42
2022-08-17T11:57:27.242Z,21.20
2022-08-17T11:59:59.212Z,17.80
2022-08-17T12:02:32.694Z,23.05
2022-08-17T12:07:33.193Z,20.55
2022-08-17T12:10:00.996Z,20.70
2022-08-17T12:12:33.648Z,19.10
2022-08-17T12:15:10.750Z,22.63
2022-08-17T12:17:42.365Z,20.30
2022-08-17T12:20:16.137Z,20.48
2022-08-17T12:22:55.820Z,27.85
2022-08-17T12:26:09.319Z,20.98
2022-08-17T12:28:39.035Z,26.70
2022-08-17T12:31:31.575Z,19.20
2022-08-17T12:34:00.521Z,25.25
2022-08-17T12:36:29.014Z,20.02
2022-08-17T12:39:13.772Z,24.20
2022-08-17T12:41:44.447Z,17.80
2022-08-17T12:44:12.099Z,20.17
2022-08-17T12:46:48.197Z,16.10
2022-08-17T12:49:18.074Z,22.58
2022-08-17T12:51:48.645Z,25.98
2022-08-17T12:54:25.045Z,19.90
2022-08-17T12:56:52.206Z,19.63
2022-08-17T12:59:30.463Z,20.33
2022-08-17T13:01:57.818Z,21.73
2022-08-17T13:04:26.631Z,20.20
2022-08-17T13:06:59.678Z,19.90
2022-08-17T13:09:40.326Z,18.30
2022-08-17T13:12:09.127Z,17.13
2022-08-17T13:14:36.202Z,20.08
2022-08-17T13:17:08.542Z,23.27
2022-08-17T13:19:49.591Z,24.08
2022-08-17T13:22:18.285Z,19.77
2022-08-17T13:25:07.400Z,22.15
2022-08-17T13:27:34.385Z,19.77
2022-08-17T13:30:07.006Z,19.88
2022-08-17T13:32:43.695Z,20.75
2022-08-17T13:35:41.251Z,21.33
2022-08-17T13:38:12.515Z,20.48
2022-08-17T13:40:41.722Z,18.02
2022-08-17T13:43:10.583Z,21.85
2022-08-17T13:46:08.169Z,18.15
2022-08-17T13:48:35.728Z,18.30
2022-08-17T13:51:12.611Z,19.70
2022-08-17T13:53:40.482Z,19.77
2022-08-17T13:56:46.586Z,21.63
2022-08-17T13:59:53.443Z,17.75
2022-08-17T14:02:19.389Z,20.85
2022-08-17T14:04:48.071Z,16.77
2022-08-17T14:07:16.312Z,28.00
2022-08-17T14:09:54.103Z,21.50
2022-08-17T14:12:26.630Z,30.48
2022-08-17T14:14:58.849Z,17.65
2022-08-17T14:17:28.957Z,18.88
2022-08-17T14:19:56.097Z,46.60
2022-08-17T14:22:30.898Z,19.95
2022-08-17T14:24:59.613Z,23.65
2022-08-17T14:27:28.082Z,18.65
2022-08-17T14:29:55.805Z,23.90
2022-08-17T14:32:28.863Z,18.35
2022-08-17T14:34:57.619Z,15.98
2022-08-17T14:37:27.771Z,18.85
2022-08-17T14:39:56.297Z,19.23
2022-08-17T14:42:26.345Z,21.15
2022-08-17T14:44:54.484Z,21.13
2022-08-17T14:47:21.417Z,18.25
2022-08-17T14:49:48.663Z,20.73
2022-08-17T14:52:21.459Z,20.75
2022-08-17T14:54:53.035Z,23.17
2022-08-17T14:57:33.687Z,23.35
2022-08-17T15:00:05.334Z,20.98
2022-08-17T15:02:45.431Z,19.92
2022-08-17T15:05:16.069Z,21.20
2022-08-17T15:07:48.744Z,20.10
2022-08-17T15:10:19.451Z,19.30
2022-08-17T15:12:46.445Z,21.77
2022-08-17T15:15:15.750Z,23.98
2022-08-17T15:17:55.011Z,20.38
2022-08-17T15:20:28.180Z,22.05
2022-08-17T15:22:57.116Z,26.35
2022-08-17T15:25:25.285Z,18.02
2022-08-17T15:27:52.695Z,18.33
2022-08-17T15:30:20.540Z,7.88
2022-08-17T15:32:54.043Z,8.75
2022-08-17T15:35:27.213Z,11.55
2022-08-17T15:38:04.673Z,10.20
2022-08-17T15:40:36.772Z,9.80
2022-08-17T15:43:11.742Z,8.68
2022-08-17T15:45:39.452Z,9.07
2022-08-17T15:48:43.529Z,14.00
2022-08-17T15:51:35.284Z,10.40
2022-08-17T15:54:19.298Z,8.10
2022-08-17T15:56:49.823Z,9.70
2022-08-17T15:59:16.661Z,8.32
2022-08-17T16:03:15.177Z,10.40
2022-08-17T16:04:31.943Z,11.05
2022-08-17T16:06:59.680Z,9.82
2022-08-17T16:09:26.902Z,7.80
2022-08-17T16:11:56.145Z,9.93
2022-08-17T16:14:25.804Z,12.75
2022-08-17T16:17:03.200Z,15.18
2022-08-17T16:19:30.297Z,11.75
2022-08-17T16:21:57.101Z,9.52
2022-08-17T16:24:23.992Z,14.40
2022-08-17T16:26:51.137Z,8.48
2022-08-17T16:29:18.706Z,15.30
2022-08-17T16:31:45.991Z,14.52
2022-08-17T16:34:16.970Z,9.02
2022-08-17T16:36:55.128Z,9.27
2022-08-17T16:39:28.023Z,9.27
2022-08-17T16:41:56.624Z,11.25
2022-08-17T16:44:23.802Z,9.77
2022-08-17T16:46:50.719Z,11.25
2022-08-17T16:49:35.466Z,11.15
2022-08-17T16:52:06.767Z,11.70
2022-08-17T16:54:35.180Z,11.20
2022-08-17T16:57:04.843Z,11.95
2022-08-17T16:59:40.769Z,14.02
2022-08-17T17:02:13.130Z,11.73
2022-08-17T17:04:59.982Z,13.13
2022-08-17T17:07:43.616Z,12.02
2022-08-17T17:10:16.929Z,11.43
2022-08-17T17:13:03.133Z,10.23
2022-08-17T17:15:43.840Z,10.10
2022-08-17T17:18:12.867Z,16.33
2022-08-17T17:20:50.069Z,11.98
2022-08-17T17:23:36.070Z,15.95
2022-08-17T17:26:17.448Z,15.43
2022-08-17T17:29:06.342Z,13.85
2022-08-17T17:31:39.287Z,18.30
2022-08-17T17:34:10.046Z,14.40
2022-08-17T17:36:58.635Z,15.10
2022-08-17T17:39:52.782Z,13.02
2022-08-17T17:42:24.442Z,19.15
2022-08-17T17:45:09.563Z,17.65
2022-08-17T17:47:37.141Z,17.58
2022-08-17T17:50:06.835Z,24.35
2022-08-17T17:52:41.075Z,20.08
2022-08-17T17:55:36.561Z,21.35
2022-08-17T17:58:19.565Z,25.90
2022-08-17T18:01:28.264Z,26.63
2022-08-17T18:04:20.688Z,21.60
2022-08-17T18:06:56.969Z,25.27
2022-08-17T18:09:33.964Z,22.75
2022-08-17T18:12:19.766Z,24.15
2022-08-17T18:14:52.344Z,25.73
2022-08-17T18:17:20.247Z,22.50
2022-08-17T18:19:48.177Z,21.02
2022-08-17T18:22:18.774Z,25.92
2022-08-17T18:24:48.162Z,31.40
2022-08-17T18:27:36.692Z,28.95
2022-08-17T18:30:12.624Z,26.27
2022-08-17T18:32:42.389Z,25.40
2022-08-17T18:35:14.103Z,27.52
2022-08-17T18:37:53.202Z,23.00
2022-08-17T18:40:20.205Z,25.38
2022-08-17T18:43:08.066Z,24.67
2022-08-17T18:45:39.544Z,24.65
2022-08-17T18:48:20.159Z,30.00
2022-08-17T18:50:48.037Z,22.45
2022-08-17T18:53:41.171Z,21.88
2022-08-17T18:56:21.288Z,20.05
2022-08-17T18:59:22.356Z,19.45
2022-08-17T19:02:36.025Z,21.40
2022-08-17T19:05:38.370Z,24.30
2022-08-17T19:08:18.476Z,23.35
2022-08-17T19:10:47.414Z,24.73
2022-08-17T19:13:24.905Z,25.23
2022-08-17T19:16:17.999Z,29.77
2022-08-17T19:19:06.869Z,26.30
2022-08-17T19:21:41.399Z,31.05
2022-08-17T19:24:20.024Z,25.83
2022-08-17T19:26:56.536Z,24.63
2022-08-17T19:29:36.938Z,24.92
2022-08-17T19:32:08.840Z,28.15
2022-08-17T19:34:38.110Z,28.10
2022-08-17T19:37:06.757Z,27.35
2022-08-17T19:39:45.827Z,25.60
2022-08-17T19:42:47.277Z,22.98
2022-08-17T19:45:40.059Z,24.60
2022-08-17T19:48:45.794Z,25.00
2022-08-17T19:51:23.794Z,20.95
2022-08-17T19:54:06.206Z,21.85
2022-08-17T19:56:37.566Z,24.93
2022-08-17T19:59:23.489Z,25.30
2022-08-17T20:02:01.263Z,22.40
2022-08-17T20:04:32.287Z,19.80
2022-08-17T20:07:26.197Z,24.67
2022-08-17T20:10:08.162Z,25.70
2022-08-17T20:12:38.327Z,22.83
2022-08-17T20:15:29.836Z,21.08
2022-08-17T20:18:05.642Z,27.67
2022-08-17T20:20:41.778Z,23.58
2022-08-17T20:23:29.979Z,26.23
2022-08-17T20:26:05.780Z,25.13
2022-08-17T20:28:35.424Z,24.52
2022-08-17T20:31:25.446Z,24.90
2022-08-17T20:33:55.163Z,26.10
2022-08-17T20:36:24.633Z,26.25
2022-08-17T20:38:55.942Z,29.27
2022-08-17T20:41:24.477Z,27.45
2022-08-17T20:44:04.185Z,25.70
2022-08-17T20:46:36.899Z,34.20
2022-08-17T20:49:16.397Z,31.92
2022-08-17T20:52:01.689Z,47.03
2022-08-17T20:54:46.740Z,31.60
2022-08-17T20:57:31.915Z,31.63
2022-08-17T21:00:17.483Z,40.47
2022-08-17T21:02:49.792Z,40.78
2022-08-17T21:05:34.295Z,34.85
2022-08-17T21:08:30.415Z,42.72
2022-08-17T21:10:59.989Z,40.50
2022-08-17T21:13:37.739Z,42.55
2022-08-17T21:16:29.158Z,46.30
2022-08-17T21:19:22.179Z,38.83
2022-08-17T21:22:00.282Z,53.88
2022-08-17T21:24:51.655Z,42.15
2022-08-17T21:27:47.827Z,43.03
2022-08-17T21:30:44.500Z,48.25
2022-08-17T21:33:18.406Z,39.35
2022-08-17T21:35:51.868Z,46.85
2022-08-17T21:38:23.447Z,45.05
2022-08-17T21:40:52.850Z,47.83
2022-08-17T21:43:44.679Z,41.80
2022-08-17T21:46:30.432Z,40.55
2022-08-17T21:49:13.590Z,50.55
2022-08-17T21:51:53.679Z,50.25
2022-08-17T21:54:35.455Z,52.05
2022-08-17T21:57:05.606Z,47.03
2022-08-17T21:59:36.993Z,44.45
2022-08-17T22:02:16.360Z,49.92
2022-08-17T22:04:54.715Z,47.75
2022-08-17T22:07:38.524Z,53.67
2022-08-17T22:10:08.637Z,45.72
2022-08-17T22:12:35.587Z,41.85
2022-08-17T22:15:07.271Z,46.85
2022-08-17T22:17:40.026Z,45.75
2022-08-17T22:20:10.467Z,42.38
2022-08-17T22:23:17.636Z,39.97
2022-08-17T22:26:09.603Z,42.38
2022-08-17T22:28:45.611Z,45.22
2022-08-17T22:31:15.819Z,39.08
2022-08-17T22:33:47.161Z,47.17
2022-08-17T22:36:14.084Z,42.45
2022-08-17T22:38:43.469Z,43.17
2022-08-17T22:41:16.508Z,39.80
2022-08-17T22:43:44.730Z,37.55
2022-08-17T22:46:12.580Z,43.05
2022-08-17T22:48:52.165Z,43.63
2022-08-17T22:51:21.868Z,43.63
2022-08-17T22:54:10.364Z,43.55
2022-08-17T22:56:56.611Z,36.58
2022-08-17T22:59:45.253Z,37.85
2022-08-17T23:02:22.033Z,38.75
2022-08-17T23:05:16.566Z,38.45
2022-08-17T23:07:45.460Z,41.17
2022-08-17T23:10:13.865Z,46.03
2022-08-17T23:12:41.270Z,38.42
2022-08-17T23:15:15.132Z,39.72
2022-08-17T23:17:42.608Z,47.22
2022-08-17T23:20:18.221Z,53.00
2022-08-17T23:22:51.241Z,55.22
2022-08-17T23:25:26.365Z,50.97
2022-08-17T23:27:54.420Z,51.85
2022-08-17T23:30:24.942Z,49.35
2022-08-17T23:32:53.994Z,51.70
2022-08-17T23:35:40.578Z,49.75
2022-08-17T23:38:11.931Z,48.30
2022-08-17T23:40:39.914Z,62.58
2022-08-17T23:43:24.059Z,58.50
2022-08-17T23:45:57.930Z,61.10
2022-08-17T23:48:32.644Z,56.97
2022-08-17T23:51:09.589Z,51.47
2022-08-17T23:53:41.784Z,52.20
2022-08-17T23:56:11.228Z,52.78
2022-08-17T23:58:41.896Z,46.58
